Time;durP1;ratioP1;P1;durP2;ratioP2;P2;SDS_P1;SDS_P2;PMS_P1;PMS_P2;Temp;Humidity;BMP_temperature;BMP_pressure;BME280_temperature;BME280_humidity;BME280_pressure;Samples;Min_cycle;Max_cycle;Signal;HPM_P1;HPM_P2
2022/06/30 00:00:47;;;;;;;11.15;9.70;;;;;;;22.14;82.28;99964.25;4932670;28;20639;-72
2022/06/30 00:03:14;;;;;;;11.60;10.50;;;;;;;22.15;82.51;99963.25;4933081;28;20044;-73
2022/06/30 00:05:40;;;;;;;11.23;9.90;;;;;;;22.14;82.62;99964.25;4931837;28;20056;-73
2022/06/30 00:08:07;;;;;;;13.68;9.82;;;;;;;22.09;82.67;99962.00;4931494;28;20051;-73
2022/06/30 00:10:34;;;;;;;13.15;9.90;;;;;;;21.93;82.97;99937.56;4931908;28;20135;-73
2022/06/30 00:13:00;;;;;;;10.40;9.40;;;;;;;21.98;83.17;99964.91;4937357;28;20063;-72
2022/06/30 00:15:27;;;;;;;11.05;9.30;;;;;;;21.92;83.89;99966.38;4932376;28;20078;-72
2022/06/30 00:17:53;;;;;;;11.98;10.75;;;;;;;21.82;84.23;99954.84;4931799;28;20083;-72
2022/06/30 00:20:20;;;;;;;11.70;10.35;;;;;;;21.85;84.81;99968.00;4931292;28;20186;-73
2022/06/30 00:22:47;;;;;;;15.38;10.88;;;;;;;21.88;84.99;99964.16;4932531;28;20158;-73
2022/06/30 00:25:14;;;;;;;10.73;9.80;;;;;;;21.81;85.06;99955.84;4932111;28;20492;-72
2022/06/30 00:27:40;;;;;;;11.70;10.25;;;;;;;21.83;85.34;99961.94;4931636;28;20070;-73
2022/06/30 00:30:08;;;;;;;15.05;10.55;;;;;;;21.80;85.32;99959.53;4931515;28;20491;-73
2022/06/30 00:32:35;;;;;;;13.55;10.77;;;;;;;21.77;85.76;99959.84;4931512;28;20110;-73
2022/06/30 00:35:02;;;;;;;12.70;10.60;;;;;;;21.72;86.04;99959.47;4931555;28;20079;-73
2022/06/30 00:37:28;;;;;;;13.93;10.93;;;;;;;21.66;86.44;99960.06;4931561;28;20044;-72
2022/06/30 00:39:55;;;;;;;11.82;10.63;;;;;;;21.61;86.75;99960.53;4931878;28;20060;-72
2022/06/30 00:42:22;;;;;;;13.52;10.88;;;;;;;21.56;87.21;99945.84;4931167;28;20151;-72
2022/06/30 00:44:49;;;;;;;13.95;11.07;;;;;;;21.53;87.41;99949.69;4937816;28;20052;-71
2022/06/30 00:47:15;;;;;;;12.77;10.15;;;;;;;21.48;87.67;99943.03;4932417;28;20059;-72
2022/06/30 00:49:42;;;;;;;13.48;10.30;;;;;;;21.49;88.10;99953.66;4933516;28;20138;-72
2022/06/30 00:52:10;;;;;;;12.73;11.32;;;;;;;21.49;88.47;99947.44;4931730;28;20559;-72
2022/06/30 00:54:39;;;;;;;16.67;10.55;;;;;;;21.46;88.17;99948.59;4931703;28;20411;-72
2022/06/30 00:57:10;;;;;;;12.95;10.85;;;;;;;21.42;88.51;99952.56;4931653;28;20545;-73
2022/06/30 00:59:39;;;;;;;13.35;10.93;;;;;;;21.41;88.91;99947.38;4931193;28;20083;-73
2022/06/30 01:02:07;;;;;;;12.95;11.20;;;;;;;21.36;89.15;99942.41;4930661;28;20138;-72
2022/06/30 01:04:35;;;;;;;14.07;10.77;;;;;;;21.32;89.63;99941.03;4930303;28;20500;-72
2022/06/30 01:07:03;;;;;;;13.70;11.85;;;;;;;21.28;89.34;99921.63;4927003;28;20059;-72
2022/06/30 01:15:01;;;;;;;14.52;11.50;;;;;;;21.28;89.86;99934.25;4931667;28;20123;-73
2022/06/30 01:17:28;;;;;;;13.38;11.23;;;;;;;21.27;90.20;99944.16;4929413;28;20560;-73
2022/06/30 01:19:56;;;;;;;13.82;12.38;;;;;;;21.12;90.14;99923.25;4931183;28;20043;-72
2022/06/30 01:22:22;;;;;;;15.65;12.63;;;;;;;21.16;90.46;99936.28;4928181;28;20140;-74
2022/06/30 01:24:49;;;;;;;14.93;12.73;;;;;;;21.07;90.72;99926.41;4931761;28;20103;-72
2022/06/30 01:27:17;;;;;;;14.43;11.65;;;;;;;21.13;90.99;99938.41;4932119;28;20056;-72
2022/06/30 01:29:44;;;;;;;15.55;12.20;;;;;;;21.11;91.27;99933.16;4931056;28;20079;-72
2022/06/30 01:32:11;;;;;;;15.25;13.05;;;;;;;21.11;91.28;99933.16;4930530;28;20067;-72
2022/06/30 01:34:38;;;;;;;14.43;12.90;;;;;;;21.07;91.41;99915.66;4930471;28;20594;-72
2022/06/30 01:37:05;;;;;;;14.13;12.63;;;;;;;21.00;90.68;99910.00;4931176;28;20102;-72
2022/06/30 01:39:32;;;;;;;13.25;11.80;;;;;;;21.07;91.23;99936.34;4930399;28;20055;-72
2022/06/30 01:41:58;;;;;;;13.90;12.40;;;;;;;21.04;91.64;99932.09;4930452;28;20641;-73
2022/06/30 01:44:25;;;;;;;15.73;11.98;;;;;;;21.02;91.69;99936.78;4930401;28;20047;-72
2022/06/30 01:46:52;;;;;;;16.38;12.70;;;;;;;20.94;91.88;99929.44;4930419;28;20499;-73
2022/06/30 01:49:19;;;;;;;14.13;12.63;;;;;;;20.90;92.08;99938.81;4929698;28;20051;-72
2022/06/30 01:51:45;;;;;;;13.35;11.98;;;;;;;20.63;92.58;99899.28;4930902;28;20047;-72
2022/06/30 01:54:12;;;;;;;16.48;12.82;;;;;;;20.78;93.05;99931.09;4930329;28;20055;-72
2022/06/30 01:56:39;;;;;;;18.58;13.05;;;;;;;20.82;93.43;99930.63;4930226;28;20058;-72
2022/06/30 01:59:06;;;;;;;14.68;13.20;;;;;;;20.78;93.24;99925.72;4929994;28;20134;-72
2022/06/30 02:01:33;;;;;;;15.15;12.65;;;;;;;20.73;93.54;99919.94;4930210;28;20135;-72
2022/06/30 02:04:46;;;;;;;15.75;12.85;;;;;;;20.76;93.82;99923.19;4930118;28;20261;-72
2022/06/30 02:06:48;;;;;;;14.93;13.32;;;;;;;20.73;93.61;99928.84;4929908;28;20044;-72
2022/06/30 02:09:15;;;;;;;15.98;13.57;;;;;;;20.69;93.99;99927.44;4929833;28;20575;-72
2022/06/30 02:11:41;;;;;;;17.80;13.80;;;;;;;20.72;94.48;99942.44;4929968;28;20056;-72
2022/06/30 02:14:08;;;;;;;15.98;14.10;;;;;;;20.73;94.07;99934.22;4925524;28;20138;-72
2022/06/30 02:16:35;;;;;;;15.15;13.63;;;;;;;20.67;93.96;99927.59;4930146;28;20047;-72
2022/06/30 02:19:02;;;;;;;17.48;13.50;;;;;;;20.60;94.07;99918.44;4929828;28;20056;-72
2022/06/30 02:21:29;;;;;;;17.08;14.07;;;;;;;20.74;94.20;99933.22;4929884;28;20075;-72
2022/06/30 02:23:55;;;;;;;16.30;14.35;;;;;;;20.70;93.97;99936.34;4930533;28;20048;-72
2022/06/30 02:26:22;;;;;;;15.13;13.63;;;;;;;20.70;94.25;99931.81;4929827;28;20673;-72
2022/06/30 02:28:49;;;;;;;16.63;13.90;;;;;;;20.66;94.33;99931.25;4929649;28;20055;-72
2022/06/30 02:31:15;;;;;;;16.10;14.40;;;;;;;20.64;94.27;99932.41;4930347;28;20143;-72
2022/06/30 02:33:42;;;;;;;15.45;13.85;;;;;;;20.64;94.67;99938.63;4930218;28;20084;-72
2022/06/30 02:36:09;;;;;;;15.52;14.00;;;;;;;20.63;94.34;99928.88;4928944;28;20047;-72
2022/06/30 02:38:35;;;;;;;15.00;13.45;;;;;;;20.65;94.46;99932.25;4929338;28;20463;-73
2022/06/30 02:41:02;;;;;;;15.80;14.20;;;;;;;20.64;93.73;99933.25;4925185;28;20103;-72
2022/06/30 02:43:29;;;;;;;18.85;13.93;;;;;;;20.60;93.97;99933.72;4929955;28;20475;-72
2022/06/30 02:45:55;;;;;;;15.48;13.95;;;;;;;20.58;94.50;99931.16;4929418;28;20408;-72
2022/06/30 02:48:22;;;;;;;15.13;13.13;;;;;;;20.59;95.41;99923.94;4928580;28;20146;-72
2022/06/30 02:50:48;;;;;;;14.13;12.63;;;;;;;20.58;94.75;99920.41;4929390;28;20043;-72
2022/06/30 02:53:15;;;;;;;15.32;13.70;;;;;;;20.57;94.31;99924.09;4929862;28;20044;-72
2022/06/30 02:55:42;;;;;;;14.93;13.40;;;;;;;20.54;94.62;99920.84;4925283;28;20575;-72
2022/06/30 02:58:08;;;;;;;15.07;13.48;;;;;;;20.51;95.04;99908.53;4927233;28;20062;-72
2022/06/30 03:00:35;;;;;;;18.63;13.70;;;;;;;20.51;95.13;99913.91;4929560;28;20401;-73
2022/06/30 03:03:02;;;;;;;14.93;13.40;;;;;;;20.49;95.01;99921.28;4929532;28;20138;-72
2022/06/30 03:05:28;;;;;;;16.20;14.02;;;;;;;20.48;95.34;99919.56;4929843;28;20059;-73
2022/06/30 03:07:55;;;;;;;15.85;13.73;;;;;;;20.49;95.31;99918.59;4929342;28;20098;-73
2022/06/30 03:10:21;;;;;;;15.40;13.77;;;;;;;20.47;94.71;99917.88;4928791;28;20051;-72
2022/06/30 03:12:48;;;;;;;15.30;13.90;;;;;;;20.33;95.25;99910.25;4929383;28;20697;-72
2022/06/30 03:15:15;;;;;;;15.65;13.68;;;;;;;20.43;95.73;99937.16;4924882;28;20096;-73
2022/06/30 03:17:42;;;;;;;19.35;14.48;;;;;;;20.37;95.43;99921.59;4928926;28;20637;-73
2022/06/30 03:20:09;;;;;;;16.42;14.82;;;;;;;20.39;95.34;99922.31;4928941;28;20525;-74
2022/06/30 03:22:35;;;;;;;16.45;14.85;;;;;;;20.37;95.36;99926.97;4929589;28;20059;-72
2022/06/30 03:25:03;;;;;;;15.75;14.05;;;;;;;20.24;95.00;99905.75;4930068;28;20504;-73
2022/06/30 03:27:29;;;;;;;17.35;15.25;;;;;;;20.18;95.16;99900.94;4932512;28;20135;-74
2022/06/30 03:29:56;;;;;;;17.02;15.30;;;;;;;20.27;95.28;99913.53;4932849;28;20131;-74
2022/06/30 03:32:22;;;;;;;17.23;15.43;;;;;;;20.25;95.83;99910.16;4932022;28;20064;-73
2022/06/30 03:34:49;;;;;;;16.38;14.77;;;;;;;20.23;96.43;99915.66;4932958;28;20134;-73
2022/06/30 03:37:15;;;;;;;17.33;15.48;;;;;;;20.12;96.74;99891.66;4933456;28;20083;-73
2022/06/30 03:39:42;;;;;;;16.42;14.65;;;;;;;20.30;96.63;99908.69;4932273;28;20055;-73
2022/06/30 03:42:09;;;;;;;17.13;14.82;;;;;;;20.20;96.00;99899.81;4932685;28;20075;-73
2022/06/30 03:44:36;;;;;;;17.77;15.85;;;;;;;20.22;96.17;99911.28;4932441;28;20067;-72
2022/06/30 03:47:03;;;;;;;16.75;14.93;;;;;;;20.36;96.18;99925.25;4932721;28;20048;-72
2022/06/30 03:49:29;;;;;;;18.48;15.55;;;;;;;20.38;96.08;99934.91;4932159;28;20454;-74
2022/06/30 03:51:56;;;;;;;16.23;14.52;;;;;;;20.44;95.85;99928.97;4932757;28;20053;-72
2022/06/30 03:54:23;;;;;;;18.67;16.60;;;;;;;20.36;95.43;99901.06;4930319;28;20159;-72
2022/06/30 03:56:50;;;;;;;17.67;15.88;;;;;;;20.41;95.06;99906.88;4932538;28;20052;-73
2022/06/30 03:59:16;;;;;;;18.33;16.42;;;;;;;20.51;94.55;99921.97;4930870;28;20070;-72
2022/06/30 04:01:43;;;;;;;18.50;15.75;;;;;;;20.48;94.13;99929.50;4929242;28;20051;-72
2022/06/30 04:04:10;;;;;;;16.48;14.77;;;;;;;20.43;94.83;99921.03;4932404;28;20530;-73
2022/06/30 04:06:36;;;;;;;18.77;16.75;;;;;;;20.36;95.49;99917.19;4932394;28;20705;-72
2022/06/30 04:09:03;;;;;;;21.25;17.98;;;;;;;20.42;95.63;99939.00;4931562;28;20586;-72
2022/06/30 04:11:30;;;;;;;19.00;17.08;;;;;;;20.44;95.39;99939.72;4932854;28;20062;-72
2022/06/30 04:13:56;;;;;;;22.02;16.55;;;;;;;20.49;95.46;99936.56;4932862;28;20068;-72
2022/06/30 04:16:23;;;;;;;18.23;16.42;;;;;;;20.55;95.86;99936.00;4932673;28;20083;-73
2022/06/30 04:18:49;;;;;;;19.70;15.95;;;;;;;20.45;94.90;99914.53;4931928;28;20401;-72
2022/06/30 04:21:16;;;;;;;19.98;17.58;;;;;;;20.62;94.67;99940.63;4932179;28;20130;-71
2022/06/30 04:23:44;;;;;;;21.52;17.50;;;;;;;20.67;93.82;99945.56;4930981;28;20051;-72
2022/06/30 04:26:10;;;;;;;20.17;18.05;;;;;;;20.67;93.98;99945.56;4931576;28;20128;-71
2022/06/30 04:28:38;;;;;;;20.92;17.40;;;;;;;20.67;93.86;99941.03;4931116;28;20068;-72
2022/06/30 04:33:50;;;;;;;19.80;16.40;;;;;;;20.75;93.91;99939.47;4932192;28;20754;-72
2022/06/30 04:36:17;;;;;;;19.98;17.77;;;;;;;20.80;93.20;99940.69;4928427;28;20130;-71
2022/06/30 04:38:44;;;;;;;18.92;17.10;;;;;;;20.83;92.98;99940.41;4931047;28;20140;-72
2022/06/30 04:41:25;;;;;;;20.70;17.27;;;;;;;20.90;92.88;99943.38;4931240;28;20055;-71
2022/06/30 04:43:56;;;;;;;19.77;17.52;;;;;;;20.91;92.26;99935.13;4927993;28;20044;-73
2022/06/30 04:46:24;;;;;;;20.05;16.55;;;;;;;21.02;92.11;99940.31;4931206;28;20075;-72
2022/06/30 04:48:51;;;;;;;17.83;16.02;;;;;;;21.09;91.56;99939.72;4931543;28;20493;-73
2022/06/30 04:51:19;;;;;;;23.20;17.13;;;;;;;20.98;91.07;99911.16;4932497;28;20107;-74
2022/06/30 04:53:46;;;;;;;20.60;17.50;;;;;;;21.13;90.92;99933.03;4931842;28;20114;-71
2022/06/30 04:56:13;;;;;;;22.13;16.83;;;;;;;21.11;90.71;99926.94;4931168;28;20470;-73
2022/06/30 04:58:40;;;;;;;19.98;17.88;;;;;;;21.12;90.74;99932.19;4931475;28;20067;-73
2022/06/30 05:01:07;;;;;;;19.42;17.35;;;;;;;21.10;90.66;99930.63;4931542;28;20051;-73
2022/06/30 05:03:33;;;;;;;20.33;18.08;;;;;;;21.01;90.98;99917.09;4931306;28;20058;-73
2022/06/30 05:06:00;;;;;;;20.13;18.05;;;;;;;21.08;90.81;99922.72;4931093;28;20126;-72
2022/06/30 05:08:27;;;;;;;24.60;17.60;;;;;;;21.19;90.68;99933.31;4929932;28;20056;-72
2022/06/30 05:10:54;;;;;;;20.23;17.98;;;;;;;21.19;90.47;99930.63;4925435;28;20441;-72
2022/06/30 05:13:25;;;;;;;21.40;17.95;;;;;;;21.14;90.21;99916.72;4930870;28;20059;-73
2022/06/30 05:15:52;;;;;;;20.33;17.70;;;;;;;21.29;89.83;99936.78;4931718;28;20043;-73
2022/06/30 05:18:19;;;;;;;20.25;17.63;;;;;;;21.34;89.86;99934.50;4929859;28;20047;-74
2022/06/30 05:20:46;;;;;;;21.73;17.67;;;;;;;21.44;89.72;99937.09;4931247;28;20496;-72
2022/06/30 05:23:13;;;;;;;19.02;16.55;;;;;;;21.53;89.14;99938.91;4930853;28;20077;-73
2022/06/30 05:28:25;;;;;;;19.98;17.08;;;;;;;21.72;87.02;99937.91;4930160;28;20562;-74
2022/06/30 05:30:51;;;;;;;17.98;15.90;;;;;;;21.70;87.11;99942.59;4930705;28;20501;-73
2022/06/30 05:33:19;;;;;;;19.02;17.00;;;;;;;21.69;86.92;99939.06;4930384;28;20463;-72
2022/06/30 05:35:48;;;;;;;21.38;18.17;;;;;;;21.70;86.88;99939.91;4930078;28;20530;-72
2022/06/30 05:38:15;;;;;;;18.95;16.83;;;;;;;21.66;87.02;99943.91;4929804;28;20044;-72
2022/06/30 05:40:42;;;;;;;19.55;17.40;;;;;;;21.74;87.10;99945.81;4930459;28;20517;-73
2022/06/30 05:43:11;;;;;;;22.33;17.50;;;;;;;21.63;86.42;99922.66;4930492;28;20398;-73
2022/06/30 05:45:38;;;;;;;20.87;16.93;;;;;;;21.77;86.25;99943.66;4929716;28;20416;-73
2022/06/30 05:48:05;;;;;;;19.17;16.13;;;;;;;21.80;86.06;99950.59;4929102;28;20055;-71
2022/06/30 05:50:32;;;;;;;19.17;16.00;;;;;;;21.80;85.91;99945.22;4929355;28;20094;-72
2022/06/30 05:52:59;;;;;;;22.17;17.38;;;;;;;21.84;85.61;99957.38;4929448;28;20048;-72
2022/06/30 05:55:26;;;;;;;21.88;17.50;;;;;;;21.84;85.56;99952.00;4930783;28;20107;-72
2022/06/30 05:57:58;;;;;;;18.42;16.05;;;;;;;21.82;85.85;99951.28;4928028;28;20039;-72
2022/06/30 06:00:26;;;;;;;19.33;17.25;;;;;;;21.86;85.74;99947.28;4928813;28;20170;-72
2022/06/30 06:02:53;;;;;;;20.95;17.55;;;;;;;21.90;86.18;99935.19;4929699;28;20492;-72
2022/06/30 06:05:20;;;;;;;21.52;18.30;;;;;;;21.94;85.21;99928.47;4929655;28;20056;-74
2022/06/30 06:07:47;;;;;;;19.20;16.52;;;;;;;22.06;85.36;99935.34;4929799;28;20115;-73
2022/06/30 06:10:14;;;;;;;18.40;15.70;;;;;;;22.24;84.68;99932.63;4928888;28;20536;-73
2022/06/30 06:12:43;;;;;;;19.50;17.17;;;;;;;22.42;83.36;99935.28;4929393;28;20098;-72
2022/06/30 06:15:11;;;;;;;19.52;16.58;;;;;;;22.59;81.72;99929.81;4925839;28;20416;-72
2022/06/30 06:17:45;;;;;;;17.83;14.90;;;;;;;22.74;82.16;99928.22;4928333;29;20065;-73
2022/06/30 06:20:13;;;;;;;19.42;15.90;;;;;;;22.99;80.33;99931.88;4930023;28;20043;-73
2022/06/30 06:22:40;;;;;;;19.77;15.25;;;;;;;23.36;78.44;99926.09;4931052;28;20052;-73
2022/06/30 06:25:07;;;;;;;16.90;14.45;;;;;;;23.65;76.42;99908.59;4930594;28;20075;-73
2022/06/30 06:27:35;;;;;;;16.30;14.15;;;;;;;24.31;73.66;99929.25;4930101;28;20067;-73
2022/06/30 06:30:04;;;;;;;17.48;14.98;;;;;;;24.64;71.28;99922.75;4929187;28;20916;-73
2022/06/30 06:32:31;;;;;;;14.98;13.20;;;;;;;24.93;70.74;99915.88;4929912;28;20162;-73
2022/06/30 06:34:58;;;;;;;17.48;14.10;;;;;;;25.44;68.06;99923.44;4928661;29;20051;-73
2022/06/30 06:37:25;;;;;;;16.75;13.68;;;;;;;25.69;66.60;99920.56;4929629;28;20079;-73
2022/06/30 06:39:52;;;;;;;18.42;13.70;;;;;;;25.90;65.93;99920.75;4928859;28;20048;-73
2022/06/30 06:42:19;;;;;;;15.25;12.95;;;;;;;26.24;64.47;99925.72;4929394;28;20060;-73
2022/06/30 06:44:47;;;;;;;15.70;12.82;;;;;;;26.31;64.49;99921.25;4929722;28;20471;-73
2022/06/30 06:47:15;;;;;;;17.35;13.20;;;;;;;26.64;62.62;99918.19;4929778;28;20059;-74
2022/06/30 06:49:43;;;;;;;18.08;12.93;;;;;;;26.52;63.26;99920.53;4927335;28;20456;-74
2022/06/30 06:52:10;;;;;;;14.95;13.43;;;;;;;26.16;64.30;99907.63;4929124;28;20095;-73
2022/06/30 06:54:37;;;;;;;17.33;13.82;;;;;;;26.28;64.09;99924.31;4929149;28;20086;-73
2022/06/30 06:57:03;;;;;;;14.38;12.18;;;;;;;26.54;63.61;99919.31;4930257;28;20135;-74
2022/06/30 06:59:30;;;;;;;15.32;13.57;;;;;;;26.64;63.15;99908.16;4927235;28;20531;-72
2022/06/30 07:01:57;;;;;;;13.88;11.77;;;;;;;26.72;63.27;99916.25;4923721;28;20055;-73
2022/06/30 07:04:23;;;;;;;17.73;12.30;;;;;;;27.09;61.96;99920.72;4925011;28;20048;-72
2022/06/30 07:06:51;;;;;;;14.93;11.90;;;;;;;27.49;59.52;99922.03;4929396;28;20102;-73
2022/06/30 07:09:18;;;;;;;17.60;12.90;;;;;;;27.79;58.76;99930.13;4928609;28;20127;-73
2022/06/30 07:11:44;;;;;;;13.68;12.13;;;;;;;27.52;60.78;99918.09;4929607;28;20082;-72
2022/06/30 07:14:11;;;;;;;13.18;11.85;;;;;;;27.40;61.27;99919.63;4929436;28;20136;-72
2022/06/30 07:16:37;;;;;;;12.05;10.90;;;;;;;27.60;60.90;99918.00;4929977;28;20048;-72
2022/06/30 07:19:04;;;;;;;12.40;10.38;;;;;;;27.77;58.66;99932.19;4928353;28;20051;-72
2022/06/30 07:21:31;;;;;;;10.90;9.80;;;;;;;28.00;56.48;99932.84;4928632;28;20087;-74
2022/06/30 07:23:57;;;;;;;15.80;10.68;;;;;;;27.94;55.82;99915.41;4928975;28;20505;-73
2022/06/30 07:26:24;;;;;;;14.65;9.85;;;;;;;27.87;58.06;99921.81;4927985;28;20074;-73
2022/06/30 07:28:51;;;;;;;13.23;9.75;;;;;;;28.07;56.21;99928.28;4928325;28;20055;-73
2022/06/30 07:31:20;;;;;;;14.75;10.18;;;;;;;28.19;55.76;99921.28;4929182;28;20048;-73
2022/06/30 07:33:47;;;;;;;14.05;10.15;;;;;;;28.31;56.27;99907.16;4929012;28;20078;-73
2022/06/30 07:36:14;;;;;;;10.07;8.98;;;;;;;28.31;55.08;99909.88;4927708;28;20103;-73
2022/06/30 07:38:41;;;;;;;11.43;9.40;;;;;;;28.46;53.80;99916.06;4928473;28;20056;-73
2022/06/30 07:41:08;;;;;;;11.45;9.75;;;;;;;28.26;53.90;99918.63;4929288;28;20127;-74
2022/06/30 07:43:34;;;;;;;14.27;10.00;;;;;;;28.39;53.48;99918.72;4929329;28;20126;-74
2022/06/30 07:46:01;;;;;;;15.55;11.35;;;;;;;28.16;54.48;99916.22;4928340;28;20064;-72
2022/06/30 07:48:28;;;;;;;11.35;10.07;;;;;;;27.63;56.55;99920.34;4927931;28;20087;-75
2022/06/30 07:50:55;;;;;;;13.10;9.95;;;;;;;27.94;54.46;99923.56;4928860;28;20044;-72
2022/06/30 07:53:21;;;;;;;15.85;10.90;;;;;;;28.10;54.44;99921.59;4928955;28;20059;-74
2022/06/30 07:55:48;;;;;;;11.93;10.65;;;;;;;27.80;54.84;99929.09;4929248;28;20079;-73
2022/06/30 07:58:15;;;;;;;14.77;10.00;;;;;;;27.96;54.51;99925.25;4927803;28;20123;-74
2022/06/30 08:00:41;;;;;;;11.32;9.73;;;;;;;28.23;53.60;99908.97;4928750;28;21322;-73
2022/06/30 08:03:08;;;;;;;10.68;9.45;;;;;;;28.66;51.17;99925.19;4928482;28;20063;-73
2022/06/30 08:05:35;;;;;;;10.18;8.65;;;;;;;29.02;50.71;99925.00;4928585;28;20055;-73
2022/06/30 08:08:01;;;;;;;13.27;9.32;;;;;;;29.44;49.45;99921.19;4928101;28;20733;-73
2022/06/30 08:10:28;;;;;;;13.00;10.00;;;;;;;29.83;47.84;99925.06;4928190;28;20048;-72
2022/06/30 08:12:55;;;;;;;15.10;11.10;;;;;;;29.91;47.25;99917.50;4930592;28;20556;-73
2022/06/30 08:15:22;;;;;;;11.75;10.52;;;;;;;29.87;47.09;99910.81;4931564;28;20231;-78
2022/06/30 08:17:49;;;;;;;11.82;10.45;;;;;;;29.78;47.75;99908.47;4931275;28;20039;-74
2022/06/30 08:20:15;;;;;;;12.88;10.20;;;;;;;29.42;48.78;99892.47;4931237;28;20064;-73
2022/06/30 08:22:42;;;;;;;11.68;9.07;;;;;;;29.37;50.04;99912.13;4927929;28;20419;-74
2022/06/30 08:25:09;;;;;;;10.45;9.40;;;;;;;29.38;49.62;99918.44;4930336;28;20047;-73
2022/06/30 08:27:35;;;;;;;10.30;9.30;;;;;;;29.59;49.02;99905.50;4931561;28;20087;-73
2022/06/30 08:30:03;;;;;;;15.52;10.13;;;;;;;29.94;47.34;99905.34;4931871;28;20055;-72
2022/06/30 08:32:30;;;;;;;10.90;9.00;;;;;;;30.15;46.71;99905.16;4929306;28;20086;-73
2022/06/30 08:34:57;;;;;;;13.43;9.07;;;;;;;30.26;46.63;99909.13;4934969;28;20048;-74
2022/06/30 08:37:24;;;;;;;12.80;10.45;;;;;;;30.25;46.65;99905.56;4931689;28;20602;-73
2022/06/30 08:42:39;;;;;;;12.35;10.07;;;;;;;30.49;46.04;99908.72;4930755;28;20338;-73
2022/06/30 08:45:19;;;;;;;12.13;10.45;;;;;;;29.66;47.71;99900.91;4929663;29;20083;-73
2022/06/30 08:47:46;;;;;;;;;;;;;;;28.96;50.39;99907.56;4931179;28;20127;-73
2022/06/30 08:50:14;;;;;;;15.07;11.05;;;;;;;28.53;50.99;99895.13;4930481;28;19997;-72
2022/06/30 08:52:44;;;;;;;15.57;10.75;;;;;;;28.35;52.37;99884.75;4931428;28;20060;-73
2022/06/30 08:55:12;;;;;;;;;;;;;;;28.50;51.69;99885.47;4931780;28;20055;-73
2022/06/30 08:57:41;;;;;;;11.65;8.93;;;;;;;28.87;51.79;99886.13;4930222;28;19974;-74
2022/06/30 09:00:09;;;;;;;11.88;9.43;;;;;;;29.22;48.63;99876.84;4930448;28;20151;-74
2022/06/30 09:02:36;;;;;;;12.25;9.07;;;;;;;29.36;47.93;99866.81;4931024;28;20481;-74
2022/06/30 09:05:02;;;;;;;11.48;8.75;;;;;;;29.41;47.10;99879.88;4930721;28;20163;-76
2022/06/30 09:07:30;;;;;;;10.48;7.97;;;;;;;29.54;45.14;99880.75;4931606;28;20122;-74
2022/06/30 09:09:57;;;;;;;9.30;8.40;;;;;;;29.61;46.08;99862.47;4930094;28;20761;-73
2022/06/30 09:12:26;;;;;;;9.07;8.00;;;;;;;29.96;45.63;99886.84;4930309;28;20620;-72
2022/06/30 09:14:54;;;;;;;10.15;9.15;;;;;;;29.95;45.57;99880.56;4931411;28;20047;-74
2022/06/30 09:17:28;;;;;;;10.40;8.15;;;;;;;29.69;46.56;99863.34;4930685;28;20067;-73
2022/06/30 09:20:10;;;;;;;13.52;9.88;;;;;;;29.68;45.95;99876.13;4930560;28;20087;-74
2022/06/30 09:22:41;;;;;;;11.68;8.68;;;;;;;29.39;46.95;99851.97;4930394;28;20756;-75
2022/06/30 09:25:11;;;;;;;9.40;8.50;;;;;;;29.51;47.16;99866.66;4930680;28;20063;-74
2022/06/30 09:27:40;;;;;;;10.40;8.32;;;;;;;29.47;46.55;99863.50;4930678;28;20051;-72
2022/06/30 09:30:09;;;;;;;8.50;7.53;;;;;;;29.17;44.30;99865.72;4930169;28;20504;-74
2022/06/30 09:33:04;;;;;;;10.18;7.03;;;;;;;28.97;45.70;99857.44;4929950;29;20456;-75
2022/06/30 09:35:31;;;;;;;8.18;7.38;;;;;;;29.03;45.41;99861.25;4932654;28;20067;-73
2022/06/30 09:38:09;;;;;;;8.13;7.28;;;;;;;29.20;44.95;99857.13;4929981;28;20443;-75
2022/06/30 09:40:37;;;;;;;10.18;8.75;;;;;;;29.15;44.66;99856.88;4929182;28;20074;-74
2022/06/30 09:43:05;;;;;;;8.25;7.53;;;;;;;28.96;45.46;99847.59;4932823;28;20079;-73
2022/06/30 09:45:38;;;;;;;12.95;8.20;;;;;;;28.71;46.85;99860.03;4930066;28;20060;-74
2022/06/30 09:48:06;;;;;;;9.10;8.18;;;;;;;28.50;47.33;99857.41;4928559;28;20111;-72
2022/06/30 09:50:33;;;;;;;8.35;7.32;;;;;;;28.37;47.27;99854.59;4930367;28;20098;-74
2022/06/30 09:53:14;;;;;;;9.45;7.25;;;;;;;28.56;46.88;99857.44;4930881;28;20079;-75
2022/06/30 09:55:46;;;;;;;10.68;7.47;;;;;;;28.93;46.34;99837.13;4931656;28;20060;-74
2022/06/30 09:58:16;;;;;;;9.50;7.90;;;;;;;29.05;45.00;99822.91;4930932;28;20056;-75
2022/06/30 10:00:45;;;;;;;7.88;7.18;;;;;;;29.20;44.79;99846.22;4924777;28;20039;-74
2022/06/30 10:03:12;;;;;;;7.43;6.82;;;;;;;29.09;43.97;99830.47;4930782;28;20079;-74
2022/06/30 10:05:43;;;;;;;8.23;7.32;;;;;;;28.97;45.24;99824.75;4929145;28;20051;-73
2022/06/30 10:08:12;;;;;;;8.77;7.93;;;;;;;29.17;45.60;99826.69;4929429;28;20390;-74
2022/06/30 10:10:40;;;;;;;9.57;8.48;;;;;;;29.17;45.07;99829.41;4930444;28;20054;-75
2022/06/30 10:13:13;;;;;;;8.73;7.80;;;;;;;29.14;44.75;99822.47;4930806;28;20048;-73
2022/06/30 10:15:40;;;;;;;8.75;7.30;;;;;;;29.23;44.45;99825.88;4929960;28;20048;-74
2022/06/30 10:18:08;;;;;;;8.48;7.20;;;;;;;29.49;43.54;99831.41;4928715;28;20052;-73
2022/06/30 10:20:38;;;;;;;8.88;7.32;;;;;;;29.59;42.95;99820.09;4929632;28;20166;-74
2022/06/30 10:23:07;;;;;;;8.77;7.25;;;;;;;29.77;42.45;99817.56;4930399;28;20059;-76
2022/06/30 10:25:35;;;;;;;8.73;7.10;;;;;;;29.77;41.86;99808.53;4929693;28;20118;-73
2022/06/30 10:28:03;;;;;;;9.13;6.88;;;;;;;29.76;41.68;99824.06;4929603;28;20130;-74
2022/06/30 10:30:44;;;;;;;9.43;7.07;;;;;;;29.73;41.77;99815.47;4928835;28;20132;-74
2022/06/30 10:33:19;;;;;;;9.88;7.20;;;;;;;29.89;41.22;99810.44;4926027;28;20730;-73
2022/06/30 10:36:04;;;;;;;8.77;7.78;;;;;;;30.44;40.94;99823.81;4929446;28;20152;-72
2022/06/30 10:38:37;;;;;;;8.02;7.28;;;;;;;30.54;40.90;99814.13;4929331;28;20055;-74
2022/06/30 10:41:12;;;;;;;8.63;7.22;;;;;;;30.75;40.79;99821.19;4930108;28;20055;-73
2022/06/30 10:44:00;;;;;;;10.15;6.55;;;;;;;30.72;40.48;99826.25;4931053;28;20091;-74
2022/06/30 10:46:27;;;;;;;7.47;6.75;;;;;;;30.63;40.40;99820.22;4929095;28;20075;-73
2022/06/30 10:48:54;;;;;;;9.77;7.03;;;;;;;30.56;40.25;99808.44;4929776;28;20423;-74
2022/06/30 10:51:22;;;;;;;8.07;6.65;;;;;;;30.46;40.90;99814.34;4929618;28;20087;-73
2022/06/30 10:53:56;;;;;;;7.88;7.10;;;;;;;30.41;40.91;99805.09;4927933;28;20043;-74
2022/06/30 10:57:01;;;;;;;7.93;7.18;;;;;;;30.35;40.30;99804.09;4928687;28;20064;-73
2022/06/30 10:59:36;;;;;;;9.35;6.75;;;;;;;30.39;39.65;99809.94;4921252;29;20107;-77
2022/06/30 11:02:15;;;;;;;8.43;6.47;;;;;;;30.67;38.96;99799.59;4930355;28;20062;-74
2022/06/30 11:05:11;;;;;;;7.60;6.75;;;;;;;30.54;39.65;99794.13;4928411;28;20123;-73
2022/06/30 11:07:38;;;;;;;8.52;6.85;;;;;;;30.25;40.53;99773.63;4928844;28;20063;-71
2022/06/30 11:10:06;;;;;;;12.60;6.93;;;;;;;30.31;41.08;99787.28;4928381;28;20633;-72
2022/06/30 11:12:34;;;;;;;7.57;6.50;;;;;;;30.53;40.13;99789.75;4929470;28;20047;-74
2022/06/30 11:15:01;;;;;;;7.63;6.78;;;;;;;30.50;39.11;99760.13;4928132;28;20142;-74
2022/06/30 11:17:29;;;;;;;8.95;6.80;;;;;;;30.49;38.90;99770.19;4929185;28;20067;-73
2022/06/30 11:20:04;;;;;;;8.52;6.85;;;;;;;30.28;38.87;99778.66;4931112;28;20051;-73
2022/06/30 11:22:31;;;;;;;8.02;6.60;;;;;;;30.22;39.42;99780.34;4928474;28;20083;-72
2022/06/30 11:25:02;;;;;;;7.32;6.28;;;;;;;30.22;40.06;99785.81;4928989;28;20732;-73
2022/06/30 11:27:36;;;;;;;7.50;6.60;;;;;;;30.39;38.46;99783.47;4928901;28;20091;-73
2022/06/30 11:30:11;;;;;;;7.80;6.05;;;;;;;30.69;37.54;99775.63;4927478;29;20052;-75
2022/06/30 11:32:39;;;;;;;6.78;6.18;;;;;;;31.00;36.24;99778.41;4928694;28;20044;-74
2022/06/30 11:35:06;;;;;;;6.75;6.10;;;;;;;31.20;36.98;99777.44;4929052;28;20106;-74
2022/06/30 11:37:33;;;;;;;7.05;6.35;;;;;;;31.34;36.09;99779.03;4928995;28;20095;-74
2022/06/30 11:40:05;;;;;;;6.35;5.70;;;;;;;31.53;36.46;99769.84;4928113;28;20067;-74